Time,TemperatureF,DewpointF,PressureIn,WindDirection,WindDirectionDegrees,WindSpeedMPH,WindSpeedGustMPH,Humidity,HourlyPrecipIn,Conditions,Clouds,dailyrainin,SoftwareType,DateUTC
2013-03-12 00:02:00,28.0,22.0,29.75,East,90,5.0,16.0,79,0.00,,,0.00,,2013-03-12 00:02:00,
2013-03-12 00:12:00,28.0,22.0,29.75,East,90,5.0,16.0,79,0.00,,,0.00,,2013-03-12 00:12:00,
2013-03-12 00:22:00,28.0,22.0,29.75,East,90,5.0,16.0,79,0.00,,,0.00,,2013-03-12 00:22:00,
2013-03-12 00:32:00,28.0,22.0,29.75,East,98,6.0,16.0,78,0.00,,,0.00,,2013-03-12 00:32:00,
2013-03-12 00:42:00,28.0,22.0,29.75,East,98,6.0,16.0,78,0.00,,,0.00,,2013-03-12 00:42:00,
2013-03-12 00:53:00,28.0,22.0,29.75,East,94,5.0,15.0,78,0.00,,,0.00,,2013-03-12 00:53:00,
2013-03-12 01:02:00,28.0,22.0,29.75,East,94,5.0,15.0,78,0.00,,,0.00,,2013-03-12 01:02:00,
2013-03-12 01:12:00,28.0,22.0,29.75,East,94,5.0,15.0,78,0.00,,,0.00,,2013-03-12 01:12:00,
2013-03-12 01:21:00,28.0,22.0,29.75,ESE,123,4.0,18.0,78,0.00,,,0.00,,2013-03-12 01:21:00,
2013-03-12 01:32:00,28.0,23.0,29.75,ESE,104,5.0,14.0,80,0.00,,,0.00,,2013-03-12 01:32:00,
2013-03-12 01:42:00,28.0,23.0,29.75,ESE,104,5.0,14.0,80,0.00,,,0.00,,2013-03-12 01:42:00,
2013-03-12 01:52:00,28.0,22.0,29.75,East,99,4.0,14.0,78,0.00,,,0.00,,2013-03-12 01:52:00,
2013-03-12 02:02:00,28.0,22.0,29.75,East,99,4.0,14.0,78,0.00,,,0.00,,2013-03-12 02:02:00,
2013-03-12 02:11:00,28.0,22.0,29.75,East,99,4.0,14.0,78,0.00,,,0.00,,2013-03-12 02:11:00,
2013-03-12 02:21:00,28.0,22.0,29.74,ESE,120,3.0,13.0,77,0.00,,,0.00,,2013-03-12 02:21:00,
2013-03-12 02:31:00,27.0,22.0,29.74,ESE,109,4.0,14.0,81,0.00,,,0.00,,2013-03-12 02:31:00,
2013-03-12 02:42:00,27.0,22.0,29.74,ESE,109,4.0,14.0,81,0.00,,,0.00,,2013-03-12 02:42:00,
2013-03-12 02:52:00,27.0,22.0,29.74,ESE,109,4.0,14.0,81,0.00,,,0.00,,2013-03-12 02:52:00,
2013-03-12 03:02:00,28.0,22.0,29.73,East,98,4.0,13.0,78,0.00,,,0.00,,2013-03-12 03:02:00,
2013-03-12 03:11:00,28.0,22.0,29.73,East,98,4.0,13.0,78,0.00,,,0.00,,2013-03-12 03:11:00,
2013-03-12 03:22:00,28.0,22.0,29.73,SE,130,3.0,14.0,77,0.00,,,0.00,,2013-03-12 03:22:00,
2013-03-12 03:32:00,28.0,21.0,29.73,ESE,106,4.0,14.0,76,0.00,,,0.00,,2013-03-12 03:32:00,
2013-03-12 03:42:00,28.0,21.0,29.73,ESE,106,4.0,14.0,76,0.00,,,0.00,,2013-03-12 03:42:00,
2013-03-12 03:52:00,28.0,21.0,29.73,ESE,106,4.0,14.0,76,0.00,,,0.00,,2013-03-12 03:52:00,
2013-03-12 04:02:00,28.0,21.0,29.73,ESE,111,4.0,17.0,75,0.00,,,0.00,,2013-03-12 04:02:00,
2013-03-12 04:12:00,28.0,21.0,29.73,ESE,111,4.0,17.0,75,0.00,,,0.00,,2013-03-12 04:12:00,
2013-03-12 04:22:00,28.0,21.0,29.73,ESE,111,4.0,17.0,75,0.00,,,0.00,,2013-03-12 04:22:00,
2013-03-12 04:32:00,28.0,21.0,29.73,ESE,111,4.0,17.0,75,0.00,,,0.00,,2013-03-12 04:32:00,
2013-03-12 05:02:00,28.0,20.0,29.74,SE,131,3.0,9.0,73,0.00,,,0.00,,2013-03-12 05:02:00,
2013-03-12 05:12:00,28.0,20.0,29.74,SE,131,3.0,9.0,73,0.00,,,0.00,,2013-03-12 05:12:00,
2013-03-12 05:22:00,28.0,20.0,29.74,ESE,118,4.0,14.0,73,0.00,,,0.00,,2013-03-12 05:22:00,
2013-03-12 05:32:00,28.0,20.0,29.74,ESE,118,4.0,14.0,73,0.00,,,0.00,,2013-03-12 05:32:00,
2013-03-12 05:41:00,28.0,20.0,29.74,ESE,118,4.0,14.0,73,0.00,,,0.00,,2013-03-12 05:41:00,
2013-03-12 05:52:00,28.0,20.0,29.74,ESE,103,3.0,11.0,72,0.00,,,0.00,,2013-03-12 05:52:00,
2013-03-12 06:01:00,29.0,20.0,29.75,East,97,5.0,17.0,70,0.00,,,0.00,,2013-03-12 06:01:00,
2013-03-12 06:12:00,29.0,20.0,29.75,East,97,5.0,17.0,70,0.00,,,0.00,,2013-03-12 06:12:00,
2013-03-12 06:21:00,29.0,20.0,29.75,East,97,5.0,17.0,70,0.00,,,0.00,,2013-03-12 06:21:00,
2013-03-12 06:32:00,29.0,20.0,29.75,East,95,5.0,16.0,68,0.00,,,0.00,,2013-03-12 06:32:00,
2013-03-12 06:42:00,29.0,20.0,29.75,East,95,5.0,16.0,68,0.00,,,0.00,,2013-03-12 06:42:00,
2013-03-12 06:52:00,29.0,19.0,29.75,East,101,4.0,14.0,67,0.00,,,0.00,,2013-03-12 06:52:00,
2013-03-12 07:02:00,29.0,19.0,29.76,East,98,4.0,16.0,67,0.00,,,0.00,,2013-03-12 07:02:00,
2013-03-12 07:12:00,29.0,19.0,29.76,East,98,4.0,16.0,67,0.00,,,0.00,,2013-03-12 07:12:00,
2013-03-12 07:21:00,29.0,19.0,29.76,East,98,4.0,16.0,67,0.00,,,0.00,,2013-03-12 07:21:00,
2013-03-12 07:32:00,29.0,19.0,29.77,East,95,5.0,17.0,67,0.00,,,0.00,,2013-03-12 07:32:00,
2013-03-12 07:41:00,29.0,19.0,29.77,East,95,5.0,17.0,67,0.00,,,0.00,,2013-03-12 07:41:00,
2013-03-12 07:52:00,29.0,19.0,29.78,East,100,5.0,15.0,67,0.00,,,0.00,,2013-03-12 07:52:00,
2013-03-12 08:02:00,29.0,19.0,29.78,East,100,5.0,15.0,67,0.00,,,0.00,,2013-03-12 08:02:00,
2013-03-12 08:12:00,29.0,19.0,29.78,East,100,5.0,15.0,67,0.00,,,0.00,,2013-03-12 08:12:00,
2013-03-12 08:22:00,30.0,20.0,29.78,ESE,104,4.0,16.0,67,0.00,,,0.00,,2013-03-12 08:22:00,
2013-03-12 08:32:00,30.0,20.0,29.79,East,101,4.0,14.0,65,0.00,,,0.00,,2013-03-12 08:32:00,
2013-03-12 08:42:00,30.0,20.0,29.79,East,101,4.0,14.0,65,0.00,,,0.00,,2013-03-12 08:42:00,
2013-03-12 08:52:00,30.0,20.0,29.79,East,90,6.0,19.0,65,0.00,,,0.00,,2013-03-12 08:52:00,
2013-03-12 09:02:00,30.0,20.0,29.79,East,90,6.0,19.0,65,0.00,,,0.00,,2013-03-12 09:02:00,
2013-03-12 09:11:00,30.0,20.0,29.79,East,90,6.0,19.0,65,0.00,,,0.00,,2013-03-12 09:11:00,
2013-03-12 09:22:00,31.0,20.0,29.80,East,81,5.0,16.0,62,0.00,,,0.00,,2013-03-12 09:22:00,
2013-03-12 09:31:00,31.0,19.0,29.80,East,85,5.0,17.0,61,0.00,,,0.00,,2013-03-12 09:31:00,
2013-03-12 09:42:00,31.0,19.0,29.80,East,85,5.0,17.0,61,0.00,,,0.00,,2013-03-12 09:42:00,
2013-03-12 09:52:00,31.0,19.0,29.80,East,85,5.0,17.0,61,0.00,,,0.00,,2013-03-12 09:52:00,
2013-03-12 10:02:00,32.0,18.0,29.80,East,86,8.0,17.0,56,0.00,,,0.00,,2013-03-12 10:02:00,
2013-03-12 10:11:00,32.0,18.0,29.80,East,86,8.0,17.0,56,0.00,,,0.00,,2013-03-12 10:11:00,
2013-03-12 10:22:00,33.0,19.0,29.81,East,88,4.0,12.0,56,0.00,,,0.00,,2013-03-12 10:22:00,
2013-03-12 10:32:00,33.0,18.0,29.81,ENE,77,6.0,23.0,53,0.00,,,0.00,,2013-03-12 10:32:00,
2013-03-12 10:42:00,33.0,18.0,29.81,ENE,77,6.0,23.0,53,0.00,,,0.00,,2013-03-12 10:42:00,
2013-03-12 10:52:00,33.0,18.0,29.81,ENE,77,6.0,23.0,53,0.00,,,0.00,,2013-03-12 10:52:00,
2013-03-12 11:02:00,33.0,19.0,29.81,East,85,7.0,17.0,55,0.00,,,0.00,,2013-03-12 11:02:00,
2013-03-12 11:11:00,33.0,19.0,29.81,East,85,7.0,17.0,55,0.00,,,0.00,,2013-03-12 11:11:00,
2013-03-12 11:22:00,33.0,19.0,29.81,East,85,7.0,17.0,55,0.00,,,0.00,,2013-03-12 11:22:00,
2013-03-12 11:32:00,33.0,19.0,29.81,East,85,7.0,17.0,55,0.00,,,0.00,,2013-03-12 11:32:00,
2013-03-12 11:52:00,34.0,19.0,29.80,East,85,5.0,16.0,54,0.00,,,0.00,,2013-03-12 11:52:00,
2013-03-12 12:02:00,36.0,21.0,29.80,East,80,7.0,18.0,53,0.00,,,0.00,,2013-03-12 12:02:00,
2013-03-12 12:12:00,36.0,21.0,29.80,East,80,7.0,18.0,53,0.00,,,0.00,,2013-03-12 12:12:00,
2013-03-12 12:22:00,38.0,21.0,29.80,East,85,5.0,16.0,50,0.00,,,0.00,,2013-03-12 12:22:00,
2013-03-12 12:32:00,38.0,21.0,29.80,East,85,5.0,16.0,50,0.00,,,0.00,,2013-03-12 12:32:00,
2013-03-12 12:41:00,38.0,21.0,29.80,East,85,5.0,16.0,50,0.00,,,0.00,,2013-03-12 12:41:00,
2013-03-12 12:52:00,38.0,22.0,29.80,East,81,6.0,18.0,51,0.00,,,0.00,,2013-03-12 12:52:00,
2013-03-12 13:01:00,38.0,20.0,29.80,East,92,5.0,18.0,48,0.00,,,0.00,,2013-03-12 13:01:00,
2013-03-12 13:12:00,38.0,20.0,29.80,East,92,5.0,18.0,48,0.00,,,0.00,,2013-03-12 13:12:00,
2013-03-12 13:21:00,38.0,20.0,29.80,East,92,5.0,18.0,48,0.00,,,0.00,,2013-03-12 13:21:00,
2013-03-12 13:32:00,39.0,22.0,29.80,East,90,4.0,12.0,51,0.00,,,0.00,,2013-03-12 13:32:00,
2013-03-12 13:42:00,39.0,22.0,29.80,East,90,4.0,12.0,51,0.00,,,0.00,,2013-03-12 13:42:00,
2013-03-12 13:52:00,38.0,22.0,29.80,East,88,5.0,17.0,52,0.00,,,0.00,,2013-03-12 13:52:00,
2013-03-12 14:02:00,38.0,22.0,29.80,East,98,5.0,16.0,53,0.00,,,0.00,,2013-03-12 14:02:00,
2013-03-12 14:12:00,38.0,22.0,29.80,East,98,5.0,16.0,53,0.00,,,0.00,,2013-03-12 14:12:00,
2013-03-12 14:21:00,38.0,22.0,29.80,East,98,5.0,16.0,53,0.00,,,0.00,,2013-03-12 14:21:00,
2013-03-12 14:32:00,39.0,22.0,29.79,East,80,6.0,16.0,50,0.00,,,0.00,,2013-03-12 14:32:00,
2013-03-12 14:42:00,39.0,22.0,29.79,East,80,6.0,16.0,50,0.00,,,0.00,,2013-03-12 14:42:00,
2013-03-12 14:53:00,39.0,21.0,29.78,East,94,4.0,13.0,49,0.00,,,0.00,,2013-03-12 14:53:00,
2013-03-12 15:01:00,39.0,21.0,29.78,East,94,4.0,13.0,49,0.00,,,0.00,,2013-03-12 15:01:00,
2013-03-12 15:12:00,39.0,21.0,29.78,East,94,4.0,13.0,49,0.00,,,0.00,,2013-03-12 15:12:00,
2013-03-12 15:22:00,39.0,22.0,29.78,East,83,6.0,15.0,51,0.00,,,0.00,,2013-03-12 15:22:00,
2013-03-12 15:32:00,39.0,24.0,29.78,SE,125,3.0,16.0,55,0.00,,,0.00,,2013-03-12 15:32:00,
2013-03-12 15:42:00,39.0,24.0,29.78,SE,125,3.0,16.0,55,0.00,,,0.00,,2013-03-12 15:42:00,
2013-03-12 15:52:00,38.0,24.0,29.78,East,99,3.0,12.0,56,0.00,,,0.00,,2013-03-12 15:52:00,
2013-03-12 16:02:00,38.0,24.0,29.78,East,99,3.0,12.0,56,0.00,,,0.00,,2013-03-12 16:02:00,
2013-03-12 16:11:00,38.0,24.0,29.78,East,99,3.0,12.0,56,0.00,,,0.00,,2013-03-12 16:11:00,
2013-03-12 16:22:00,38.0,24.0,29.78,East,100,5.0,16.0,57,0.00,,,0.00,,2013-03-12 16:22:00,
2013-03-12 16:32:00,38.0,26.0,29.78,East,97,4.0,13.0,61,0.00,,,0.00,,2013-03-12 16:32:00,
2013-03-12 16:42:00,38.0,26.0,29.78,East,97,4.0,13.0,61,0.00,,,0.00,,2013-03-12 16:42:00,
2013-03-12 16:52:00,38.0,26.0,29.78,East,97,4.0,13.0,61,0.00,,,0.00,,2013-03-12 16:52:00,
2013-03-12 17:02:00,38.0,26.0,29.78,ESE,110,2.0,9.0,62,0.00,,,0.00,,2013-03-12 17:02:00,
2013-03-12 17:12:00,38.0,26.0,29.78,ESE,110,2.0,9.0,62,0.00,,,0.00,,2013-03-12 17:12:00,
2013-03-12 17:22:00,38.0,26.0,29.79,WSW,254,2.0,9.0,62,0.00,,,0.00,,2013-03-12 17:22:00,
2013-03-12 17:33:00,36.0,28.0,29.80,NW,305,3.0,9.0,73,0.00,,,0.00,,2013-03-12 17:33:00,
2013-03-12 17:43:00,36.0,28.0,29.80,NW,305,3.0,9.0,73,0.00,,,0.00,,2013-03-12 17:43:00,
2013-03-12 17:52:00,36.0,28.0,29.80,NW,305,3.0,9.0,73,0.00,,,0.00,,2013-03-12 17:52:00,
2013-03-12 18:02:00,36.0,29.0,29.80,NW,309,1.0,6.0,76,0.00,,,0.00,,2013-03-12 18:02:00,
2013-03-12 18:12:00,36.0,30.0,29.80,NW,305,2.0,6.0,78,0.00,,,0.00,,2013-03-12 18:12:00,
2013-03-12 18:22:00,36.0,30.0,29.80,NW,305,2.0,6.0,78,0.00,,,0.00,,2013-03-12 18:22:00,
2013-03-12 18:32:00,36.0,30.0,29.80,NW,305,2.0,6.0,78,0.00,,,0.00,,2013-03-12 18:32:00,
2013-03-12 18:42:00,36.0,30.0,29.80,NW,305,2.0,6.0,78,0.00,,,0.00,,2013-03-12 18:42:00,
2013-03-12 18:52:00,36.0,30.0,29.80,NW,307,1.0,7.0,79,0.00,,,0.00,,2013-03-12 18:52:00,
2013-03-12 19:03:00,36.0,30.0,29.80,NW,321,1.0,6.0,80,0.00,,,0.00,,2013-03-12 19:03:00,
2013-03-12 19:12:00,36.0,30.0,29.80,NW,321,1.0,6.0,80,0.00,,,0.00,,2013-03-12 19:12:00,
2013-03-12 19:22:00,35.0,30.0,29.80,NW,313,1.0,5.0,82,0.00,,,0.00,,2013-03-12 19:22:00,
2013-03-12 19:32:00,35.0,30.0,29.80,NW,313,1.0,5.0,82,0.00,,,0.00,,2013-03-12 19:32:00,
2013-03-12 19:43:00,35.0,30.0,29.80,NW,313,1.0,5.0,82,0.00,,,0.00,,2013-03-12 19:43:00,
2013-03-12 19:53:00,35.0,30.0,29.80,NW,321,1.0,3.0,83,0.00,,,0.00,,2013-03-12 19:53:00,
2013-03-12 20:01:00,35.0,31.0,29.80,NW,315,1.0,3.0,84,0.00,,,0.00,,2013-03-12 20:01:00,
2013-03-12 20:12:00,35.0,31.0,29.80,NW,315,1.0,3.0,84,0.00,,,0.00,,2013-03-12 20:12:00,
2013-03-12 20:22:00,35.0,31.0,29.80,NW,315,1.0,3.0,84,0.00,,,0.00,,2013-03-12 20:22:00,
2013-03-12 20:32:00,35.0,31.0,29.81,NW,310,1.0,3.0,84,0.00,,,0.00,,2013-03-12 20:32:00,
2013-03-12 20:41:00,35.0,31.0,29.81,NW,310,1.0,3.0,84,0.00,,,0.00,,2013-03-12 20:41:00,
2013-03-12 20:53:00,35.0,30.0,29.81,NW,325,1.0,4.0,83,0.00,,,0.00,,2013-03-12 20:53:00,
2013-03-12 21:02:00,35.0,31.0,29.81,NW,319,1.0,5.0,84,0.00,,,0.00,,2013-03-12 21:02:00,
2013-03-12 21:12:00,35.0,31.0,29.81,NW,319,1.0,5.0,84,0.00,,,0.00,,2013-03-12 21:12:00,
2013-03-12 21:21:00,35.0,31.0,29.81,NW,319,1.0,5.0,84,0.00,,,0.00,,2013-03-12 21:21:00,
2013-03-12 21:32:00,35.0,31.0,29.81,NW,312,1.0,5.0,85,0.00,,,0.00,,2013-03-12 21:32:00,
2013-03-12 21:42:00,35.0,31.0,29.81,NW,312,1.0,5.0,85,0.00,,,0.00,,2013-03-12 21:42:00,
2013-03-12 21:52:00,35.0,31.0,29.80,North,0,0.0,3.0,86,0.00,,,0.00,,2013-03-12 21:52:00,
2013-03-12 22:02:00,35.0,31.0,29.80,North,0,0.0,3.0,86,0.00,,,0.00,,2013-03-12 22:02:00,
2013-03-12 22:12:00,35.0,31.0,29.80,North,0,0.0,3.0,86,0.00,,,0.00,,2013-03-12 22:12:00,
2013-03-12 22:21:00,35.0,32.0,29.80,North,0,0.0,3.0,87,0.00,,,0.00,,2013-03-12 22:21:00,
2013-03-12 22:32:00,35.0,32.0,29.81,North,0,0.0,3.0,88,0.00,,,0.00,,2013-03-12 22:32:00,
2013-03-12 22:42:00,35.0,32.0,29.81,North,0,0.0,3.0,88,0.00,,,0.00,,2013-03-12 22:42:00,
2013-03-12 22:52:00,35.0,32.0,29.80,NW,319,1.0,3.0,89,0.00,,,0.00,,2013-03-12 22:52:00,
2013-03-12 23:02:00,35.0,32.0,29.80,NW,319,1.0,3.0,89,0.00,,,0.00,,2013-03-12 23:02:00,
2013-03-12 23:11:00,35.0,32.0,29.80,NW,319,1.0,3.0,89,0.00,,,0.00,,2013-03-12 23:11:00,
2013-03-12 23:22:00,35.0,32.0,29.80,NW,317,1.0,3.0,88,0.00,,,0.00,,2013-03-12 23:22:00,
2013-03-12 23:33:00,35.0,32.0,29.80,North,0,0.0,3.0,88,0.00,,,0.00,,2013-03-12 23:33:00,
2013-03-12 23:43:00,35.0,32.0,29.80,North,0,0.0,3.0,88,0.00,,,0.00,,2013-03-12 23:43:00,
2013-03-12 23:52:00,35.0,32.0,29.80,North,0,0.0,3.0,88,0.00,,,0.00,,2013-03-12 23:52:00,